Time;durP1;ratioP1;P1;durP2;ratioP2;P2;SDS_P1;SDS_P2;PMS_P1;PMS_P2;Temp;Humidity;BMP_temperature;BMP_pressure;BME280_temperature;BME280_humidity;BME280_pressure;Samples;Min_cycle;Max_cycle;Signal;HPM_P1;HPM_P2
2021/01/07 00:00:31;;;;;;;5.73;5.13;;;1.60;99.90;;;;;;6176069;23;20804;-89
2021/01/07 00:02:57;;;;;;;6.60;5.60;;;1.60;99.90;;;;;;6175214;23;20650;-88
2021/01/07 00:05:22;;;;;;;6.33;4.80;;;1.60;99.90;;;;;;6176186;23;20168;-89
2021/01/07 00:07:50;;;;;;;6.77;5.47;;;1.50;99.90;;;;;;6176340;23;20270;-89
2021/01/07 00:10:15;;;;;;;7.10;5.67;;;1.60;99.90;;;;;;6175193;23;20179;-88
2021/01/07 00:12:41;;;;;;;6.83;5.83;;;1.50;99.90;;;;;;6175205;23;20865;-88
2021/01/07 00:15:09;;;;;;;6.50;5.90;;;1.50;99.90;;;;;;6177346;23;20551;-88
2021/01/07 00:17:42;;;;;;;7.83;5.40;;;1.50;99.90;;;;;;6174661;23;20172;-89
2021/01/07 00:20:10;;;;;;;7.13;5.97;;;1.50;99.90;;;;;;6175294;23;20842;-90
2021/01/07 00:22:38;;;;;;;6.60;5.50;;;1.50;99.90;;;;;;6176076;23;20164;-88
2021/01/07 00:25:05;;;;;;;7.50;5.87;;;1.50;99.90;;;;;;6175776;23;20407;-88
2021/01/07 00:27:31;;;;;;;6.13;5.53;;;1.50;99.90;;;;;;6176018;23;20392;-88
2021/01/07 00:29:57;;;;;;;6.43;5.80;;;1.50;99.90;;;;;;6171166;23;20897;-88
2021/01/07 00:32:23;;;;;;;5.80;5.20;;;1.50;99.90;;;;;;6171404;23;20416;-88
2021/01/07 00:34:48;;;;;;;5.70;5.20;;;1.50;99.90;;;;;;6175666;23;20211;-89
2021/01/07 00:37:15;;;;;;;4.90;4.40;;;1.50;99.90;;;;;;6174400;23;20391;-89
2021/01/07 00:39:40;;;;;;;6.07;5.20;;;1.50;99.90;;;;;;6173259;23;20195;-88
2021/01/07 00:42:06;;;;;;;5.77;5.10;;;1.50;99.90;;;;;;6174506;23;20700;-88
2021/01/07 00:44:31;;;;;;;5.00;4.50;;;1.50;99.90;;;;;;6175602;23;20595;-88
2021/01/07 00:46:57;;;;;;;5.30;4.80;;;1.50;99.90;;;;;;6174272;23;20614;-87
2021/01/07 00:49:23;;;;;;;5.23;4.53;;;1.40;99.90;;;;;;6174616;23;20483;-88
2021/01/07 00:51:48;;;;;;;6.50;5.00;;;1.50;99.90;;;;;;6175670;23;20538;-87
2021/01/07 00:54:14;;;;;;;5.90;5.33;;;1.40;99.90;;;;;;6174676;23;20680;-88
2021/01/07 00:56:40;;;;;;;6.13;5.53;;;1.40;99.90;;;;;;6174176;23;20170;-87
2021/01/07 00:59:07;;;;;;;5.83;5.00;;;1.50;99.90;;;;;;6174916;23;20432;-88
2021/01/07 01:01:42;;;;;;;5.30;4.73;;;1.50;99.90;;;;;;6174883;23;20161;-89
2021/01/07 01:04:07;;;;;;;5.07;4.50;;;1.40;99.90;;;;;;6173082;23;20399;-88
2021/01/07 01:06:33;;;;;;;4.70;4.30;;;1.40;99.90;;;;;;6174655;23;20387;-88
2021/01/07 01:08:59;;;;;;;5.63;4.73;;;1.50;99.90;;;;;;6174798;23;20741;-88
2021/01/07 01:11:27;;;;;;;5.23;4.73;;;1.50;99.90;;;;;;6150041;23;20192;-88
2021/01/07 01:13:53;;;;;;;5.53;5.03;;;1.50;99.90;;;;;;6174649;23;20485;-87
2021/01/07 01:16:19;;;;;;;5.90;5.30;;;1.40;99.90;;;;;;6175225;23;20402;-88
2021/01/07 01:18:44;;;;;;;5.37;4.87;;;1.40;99.90;;;;;;6174498;23;20719;-89
2021/01/07 01:21:10;;;;;;;5.37;4.87;;;1.50;99.90;;;;;;6174297;23;20213;-87
2021/01/07 01:23:36;;;;;;;5.43;4.80;;;1.50;99.90;;;;;;6175035;23;20248;-88
2021/01/07 01:26:02;;;;;;;5.10;4.70;;;1.50;99.90;;;;;;6176165;23;20156;-87
2021/01/07 01:28:27;;;;;;;5.53;5.00;;;1.40;99.90;;;;;;6174706;23;20156;-88
2021/01/07 01:30:53;;;;;;;5.30;4.90;;;1.40;99.90;;;;;;6174574;23;20164;-89
2021/01/07 01:33:18;;;;;;;5.73;5.13;;;1.50;99.90;;;;;;6175079;23;20176;-89
2021/01/07 01:35:44;;;;;;;5.30;4.50;;;1.50;99.90;;;;;;6173242;23;20169;-88
2021/01/07 01:38:10;;;;;;;5.73;5.13;;;1.40;99.90;;;;;;6174502;23;20175;-88
2021/01/07 01:40:36;;;;;;;5.00;4.50;;;1.50;99.90;;;;;;6174981;23;20726;-88
2021/01/07 01:43:01;;;;;;;5.17;4.67;;;1.40;99.90;;;;;;6174456;23;20164;-88
2021/01/07 01:45:27;;;;;;;4.60;4.20;;;1.40;99.90;;;;;;6174358;23;20192;-87
2021/01/07 01:47:52;;;;;;;6.23;4.70;;;1.50;99.90;;;;;;6173035;23;20468;-88
2021/01/07 01:52:58;;;;;;;4.77;4.27;;;1.40;99.90;;;;;;6176080;23;20164;-88
2021/01/07 01:58:34;;;;;;;5.60;4.77;;;1.40;99.90;;;;;;6175732;23;20423;-90
2021/01/07 02:01:00;;;;;;;4.23;3.83;;;1.40;99.90;;;;;;6175144;23;20487;-89
2021/01/07 02:03:25;;;;;;;4.87;4.47;;;1.40;99.90;;;;;;6174750;23;20736;-88
2021/01/07 02:05:51;;;;;;;6.07;4.87;;;1.40;99.90;;;;;;6174279;23;20175;-88
2021/01/07 02:08:18;;;;;;;5.27;4.77;;;1.40;99.90;;;;;;6173900;23;20168;-88
2021/01/07 02:10:59;;;;;;;5.20;4.50;;;1.40;99.90;;;;;;6173440;23;20407;-88
2021/01/07 02:13:24;;;;;;;5.67;4.93;;;1.30;99.90;;;;;;6173255;23;20398;-88
2021/01/07 02:15:50;;;;;;;5.13;4.57;;;1.40;99.90;;;;;;6175669;23;20408;-88
2021/01/07 02:18:16;;;;;;;5.43;4.93;;;1.40;99.90;;;;;;6174599;23;20180;-88
2021/01/07 02:20:43;;;;;;;6.13;4.33;;;1.40;99.90;;;;;;6173713;23;20901;-89
2021/01/07 02:23:12;;;;;;;5.67;4.80;;;1.30;99.90;;;;;;6176615;23;20183;-88
2021/01/07 02:25:40;;;;;;;5.57;5.00;;;1.40;99.90;;;;;;6148841;23;20404;-88
2021/01/07 02:28:08;;;;;;;5.03;4.50;;;1.40;99.90;;;;;;6149582;23;20391;-88
2021/01/07 02:30:34;;;;;;;5.07;4.57;;;1.40;99.90;;;;;;6148653;23;20415;-89
2021/01/07 02:33:00;;;;;;;6.40;5.40;;;1.40;99.90;;;;;;6174550;23;20414;-88
2021/01/07 02:35:33;;;;;;;5.40;4.63;;;1.40;99.90;;;;;;6172428;23;20400;-89
2021/01/07 02:37:58;;;;;;;5.47;4.97;;;1.40;99.90;;;;;;6172889;23;20212;-88
2021/01/07 02:40:24;;;;;;;5.43;4.80;;;1.40;99.90;;;;;;6174747;23;20443;-89
2021/01/07 02:42:51;;;;;;;6.43;5.43;;;1.40;99.90;;;;;;6150702;23;20188;-88
2021/01/07 02:45:18;;;;;;;9.00;5.37;;;1.40;99.90;;;;;;6173897;23;20214;-89
2021/01/07 02:47:45;;;;;;;7.00;5.10;;;1.40;99.90;;;;;;6176352;23;20392;-88
2021/01/07 02:50:11;;;;;;;6.60;5.87;;;1.30;99.90;;;;;;6177014;23;20707;-88
2021/01/07 02:52:38;;;;;;;5.63;5.13;;;1.30;99.90;;;;;;6149984;23;20404;-89
2021/01/07 02:55:05;;;;;;;5.13;4.63;;;1.30;99.90;;;;;;6173953;23;20399;-88
2021/01/07 02:57:31;;;;;;;6.67;5.70;;;1.30;99.90;;;;;;6176336;23;20482;-89
2021/01/07 02:59:57;;;;;;;5.47;4.80;;;1.30;99.90;;;;;;6178258;23;20457;-88
2021/01/07 03:02:24;;;;;;;5.67;5.00;;;1.30;99.90;;;;;;6176397;23;20883;-89
2021/01/07 03:04:50;;;;;;;6.40;5.70;;;1.30;99.90;;;;;;6177293;23;20470;-88
2021/01/07 03:07:18;;;;;;;8.10;6.43;;;1.30;99.90;;;;;;6177525;23;20906;-87
2021/01/07 03:09:47;;;;;;;7.10;6.13;;;1.20;99.90;;;;;;6174609;23;20172;-88
2021/01/07 03:12:18;;;;;;;8.70;5.60;;;1.20;99.90;;;;;;6176160;23;20410;-88
2021/01/07 03:14:46;;;;;;;6.20;5.60;;;1.20;99.90;;;;;;6176723;23;20388;-88
2021/01/07 03:17:13;;;;;;;6.80;5.20;;;1.20;99.90;;;;;;6176744;23;20396;-87
2021/01/07 03:19:39;;;;;;;7.03;5.93;;;1.20;99.90;;;;;;6176130;23;20443;-87
2021/01/07 03:22:08;;;;;;;7.80;6.60;;;1.20;99.90;;;;;;6176578;23;20395;-87
2021/01/07 03:24:34;;;;;;;9.23;8.27;;;1.30;99.90;;;;;;6175922;23;20422;-87
2021/01/07 03:27:00;;;;;;;8.03;6.33;;;1.20;99.90;;;;;;6175677;23;20482;-87
2021/01/07 03:29:27;;;;;;;6.90;5.50;;;1.30;99.90;;;;;;6176497;23;20384;-87
2021/01/07 03:31:53;;;;;;;7.90;6.87;;;1.30;99.90;;;;;;6176688;23;20482;-87
2021/01/07 03:34:19;;;;;;;7.50;6.30;;;1.20;99.90;;;;;;6176120;23;20495;-87
2021/01/07 03:36:45;;;;;;;8.87;6.57;;;1.20;99.90;;;;;;6175218;23;20426;-87
2021/01/07 03:39:13;;;;;;;9.03;6.37;;;1.20;99.90;;;;;;6175706;23;20192;-86
2021/01/07 03:41:42;;;;;;;8.97;7.00;;;1.20;99.90;;;;;;6175713;23;20431;-87
2021/01/07 03:44:11;;;;;;;8.33;6.13;;;1.20;99.90;;;;;;6176155;23;20410;-87
2021/01/07 03:46:51;;;;;;;7.10;6.40;;;1.30;99.90;;;;;;6174938;23;20392;-88
2021/01/07 03:49:22;;;;;;;9.10;6.40;;;1.30;99.90;;;;;;6177038;23;20404;-88
2021/01/07 03:51:48;;;;;;;8.40;6.47;;;1.20;99.90;;;;;;6174626;23;20415;-88
2021/01/07 03:54:13;;;;;;;8.90;7.77;;;1.20;99.90;;;;;;6176500;23;20195;-88
2021/01/07 03:56:39;;;;;;;8.27;6.37;;;1.20;99.90;;;;;;6175564;23;20161;-88
2021/01/07 03:59:06;;;;;;;9.73;6.30;;;1.20;99.90;;;;;;6175856;23;20698;-89
2021/01/07 04:01:32;;;;;;;6.40;5.50;;;1.20;99.90;;;;;;6175889;23;20165;-88
2021/01/07 04:03:58;;;;;;;7.70;6.37;;;1.20;99.90;;;;;;6176268;23;20408;-88
2021/01/07 04:08:59;;;;;;;10.30;6.80;;;1.20;99.90;;;;;;6177455;23;20242;-89
2021/01/07 04:11:25;;;;;;;7.77;6.63;;;1.20;99.90;;;;;;6175768;23;20430;-88
2021/01/07 04:13:50;;;;;;;8.00;6.30;;;1.20;99.90;;;;;;6176760;23;20723;-89
2021/01/07 04:16:16;;;;;;;8.73;7.20;;;1.10;99.90;;;;;;6176257;23;20234;-90
2021/01/07 04:18:42;;;;;;;10.00;6.57;;;1.10;99.90;;;;;;6175656;23;20195;-90
2021/01/07 04:21:07;;;;;;;8.90;7.43;;;1.10;99.90;;;;;;6176847;23;20251;-90
2021/01/07 04:23:33;;;;;;;7.93;7.13;;;1.10;99.90;;;;;;6176515;23;20160;-89
2021/01/07 04:25:59;;;;;;;10.93;7.63;;;1.20;99.90;;;;;;6175989;23;20611;-87
2021/01/07 04:28:25;;;;;;;9.07;7.30;;;1.20;99.90;;;;;;6175448;23;20176;-88
2021/01/07 04:30:51;;;;;;;9.67;6.50;;;1.20;99.90;;;;;;6174579;23;20727;-89
2021/01/07 04:33:17;;;;;;;7.53;6.17;;;1.20;99.90;;;;;;6176187;23;20264;-88
2021/01/07 04:35:43;;;;;;;9.13;6.67;;;1.10;99.90;;;;;;6177205;23;20481;-89
2021/01/07 04:38:09;;;;;;;7.47;6.00;;;1.10;99.90;;;;;;6175111;23;20403;-89
2021/01/07 04:40:35;;;;;;;7.27;6.10;;;1.10;99.90;;;;;;6175445;23;20192;-89
2021/01/07 04:43:09;;;;;;;9.30;7.23;;;1.20;99.90;;;;;;6175737;23;20694;-89
2021/01/07 04:45:35;;;;;;;7.30;5.90;;;1.10;99.90;;;;;;6175988;23;20398;-88
2021/01/07 04:48:01;;;;;;;9.03;7.10;;;1.10;99.90;;;;;;6174427;23;20482;-87
2021/01/07 04:50:29;;;;;;;8.23;6.57;;;1.10;99.90;;;;;;6177052;23;20391;-87
2021/01/07 04:52:55;;;;;;;8.43;6.90;;;1.20;99.90;;;;;;6174699;23;20400;-88
2021/01/07 04:55:21;;;;;;;8.80;6.77;;;1.20;99.90;;;;;;6175047;23;20719;-87
2021/01/07 04:57:49;;;;;;;8.00;6.23;;;1.20;99.90;;;;;;6174822;23;20164;-89
2021/01/07 05:00:26;;;;;;;7.60;6.00;;;1.10;99.90;;;;;;6174706;23;20515;-88
2021/01/07 05:03:01;;;;;;;9.03;7.03;;;1.10;99.90;;;;;;6174457;23;20388;-86
2021/01/07 05:05:32;;;;;;;7.73;6.20;;;1.10;99.90;;;;;;6175116;23;20505;-90
2021/01/07 05:08:03;;;;;;;8.30;6.20;;;1.10;99.90;;;;;;6175490;23;20453;-89
2021/01/07 05:10:30;;;;;;;8.90;6.73;;;1.10;99.90;;;;;;6174416;23;20410;-88
2021/01/07 05:12:57;;;;;;;8.70;6.47;;;1.20;99.90;;;;;;6175190;23;20399;-89
2021/01/07 05:15:24;;;;;;;8.30;6.63;;;1.20;99.90;;;;;;6174699;23;20817;-89
2021/01/07 05:17:50;;;;;;;10.20;7.00;;;1.20;99.90;;;;;;6176041;23;20411;-89
2021/01/07 05:20:29;;;;;;;10.33;7.60;;;1.10;99.90;;;;;;6174396;23;20467;-90
2021/01/07 05:22:59;;;;;;;9.47;7.40;;;1.10;99.90;;;;;;6170580;23;20387;-89
2021/01/07 05:25:29;;;;;;;9.97;7.30;;;1.10;99.90;;;;;;6173544;23;20411;-89
2021/01/07 05:27:58;;;;;;;7.97;6.90;;;1.10;99.90;;;;;;6175364;23;20387;-89
2021/01/07 05:30:26;;;;;;;9.80;7.20;;;1.10;99.90;;;;;;6174891;23;20461;-89
2021/01/07 05:32:57;;;;;;;9.73;7.07;;;1.10;99.90;;;;;;6174600;23;20435;-88
2021/01/07 05:35:23;;;;;;;8.80;6.37;;;1.10;99.90;;;;;;6175329;23;20392;-89
2021/01/07 05:37:49;;;;;;;8.50;6.90;;;1.10;99.90;;;;;;6174782;23;20392;-90
2021/01/07 05:40:16;;;;;;;9.70;7.77;;;1.10;99.90;;;;;;6173869;23;20196;-88
2021/01/07 05:42:44;;;;;;;9.70;6.77;;;1.10;99.90;;;;;;6174206;23;20184;-89
2021/01/07 05:45:15;;;;;;;11.10;7.63;;;1.10;99.90;;;;;;6176008;23;20414;-89
2021/01/07 05:48:00;;;;;;;11.90;8.00;;;1.10;99.90;;;;;;6174946;23;20442;-89
2021/01/07 05:50:28;;;;;;;8.83;6.60;;;1.10;99.90;;;;;;6172912;23;20491;-88
2021/01/07 05:52:55;;;;;;;9.13;7.33;;;1.10;99.90;;;;;;6175111;23;20404;-89
2021/01/07 05:55:21;;;;;;;10.07;8.30;;;1.10;99.90;;;;;;6174066;23;20735;-90
2021/01/07 05:57:47;;;;;;;10.27;8.00;;;1.20;99.90;;;;;;6171923;23;20395;-91
2021/01/07 06:00:17;;;;;;;11.20;8.47;;;1.20;99.90;;;;;;6173186;23;20641;-91
2021/01/07 06:02:45;;;;;;;9.97;7.37;;;1.10;99.90;;;;;;6174447;23;20392;-90
2021/01/07 06:05:13;;;;;;;9.40;6.60;;;1.10;99.90;;;;;;6174084;23;20431;-91
2021/01/07 06:07:39;;;;;;;10.43;7.60;;;1.10;99.90;;;;;;6175644;23;20393;-91
2021/01/07 06:10:07;;;;;;;9.57;7.00;;;1.10;99.90;;;;;;6176305;23;20432;-92
2021/01/07 06:12:33;;;;;;;9.27;7.57;;;1.10;99.90;;;;;;6176145;23;20470;-92
2021/01/07 06:15:06;;;;;;;11.30;7.87;;;1.10;99.90;;;;;;6176281;23;20432;-91
2021/01/07 06:17:32;;;;;;;11.20;8.40;;;1.10;99.90;;;;;;6175826;23;20806;-92
2021/01/07 06:19:58;;;;;;;8.90;6.57;;;1.10;99.90;;;;;;6175628;23;20443;-91
2021/01/07 06:22:25;;;;;;;13.17;9.20;;;1.10;99.90;;;;;;6176039;23;20437;-91
2021/01/07 06:24:55;;;;;;;9.80;7.87;;;1.10;99.90;;;;;;6175578;23;20587;-91
2021/01/07 06:27:31;;;;;;;10.43;7.87;;;1.10;99.90;;;;;;6175967;23;20388;-90
2021/01/07 06:30:06;;;;;;;9.50;7.70;;;1.10;99.90;;;;;;6175110;23;20438;-89
2021/01/07 06:32:37;;;;;;;10.23;7.50;;;1.10;99.90;;;;;;6176183;23;20438;-89
2021/01/07 06:35:09;;;;;;;11.20;7.63;;;1.20;99.90;;;;;;6177131;23;20443;-90
2021/01/07 06:37:49;;;;;;;10.20;7.47;;;1.20;99.90;;;;;;6177578;23;20400;-90
2021/01/07 06:40:21;;;;;;;9.63;7.30;;;1.20;99.90;;;;;;6177772;23;20443;-89
2021/01/07 06:42:53;;;;;;;10.40;7.17;;;1.20;99.90;;;;;;6176823;23;20392;-90
2021/01/07 06:45:22;;;;;;;11.93;8.40;;;1.20;99.90;;;;;;6177607;23;20514;-89
2021/01/07 06:47:48;;;;;;;10.93;8.60;;;1.20;99.90;;;;;;6176643;23;20874;-90
2021/01/07 06:50:14;;;;;;;10.77;8.10;;;1.20;99.90;;;;;;6177164;23;20723;-89
2021/01/07 06:52:45;;;;;;;10.63;7.83;;;1.10;99.90;;;;;;6176220;23;20387;-90
2021/01/07 06:55:13;;;;;;;11.50;8.20;;;1.20;99.90;;;;;;6177346;23;20403;-89
2021/01/07 06:57:58;;;;;;;10.30;7.70;;;1.10;99.90;;;;;;6177871;23;20399;-90
2021/01/07 07:00:25;;;;;;;11.00;8.87;;;1.10;99.90;;;;;;6177657;23;20757;-90
2021/01/07 07:02:58;;;;;;;11.13;8.60;;;1.10;99.90;;;;;;6178021;23;20392;-89
2021/01/07 07:05:32;;;;;;;10.43;7.43;;;1.10;99.90;;;;;;6177352;23;20404;-90
2021/01/07 07:08:15;;;;;;;12.87;8.80;;;1.20;99.90;;;;;;6175788;23;20383;-89
2021/01/07 07:10:41;;;;;;;10.83;8.07;;;1.20;99.90;;;;;;6177474;23;20406;-91
2021/01/07 07:13:15;;;;;;;9.93;8.33;;;1.10;99.90;;;;;;6177339;23;20403;-90
2021/01/07 07:15:41;;;;;;;12.67;9.47;;;1.20;99.90;;;;;;6177886;23;20608;-89
2021/01/07 07:18:07;;;;;;;10.40;8.50;;;1.10;99.90;;;;;;6176264;23;20446;-89
2021/01/07 07:20:54;;;;;;;12.93;9.00;;;1.20;99.90;;;;;;6177004;23;20442;-90
2021/01/07 07:23:24;;;;;;;13.00;9.23;;;1.10;99.90;;;;;;6176671;23;20396;-90
2021/01/07 07:25:52;;;;;;;11.73;9.20;;;1.20;99.90;;;;;;6177283;23;21185;-91
2021/01/07 07:28:19;;;;;;;12.10;8.53;;;1.10;99.90;;;;;;6177600;23;20396;-90
2021/01/07 07:30:51;;;;;;;12.30;9.50;;;1.10;99.90;;;;;;6177836;23;20391;-91
2021/01/07 07:33:43;;;;;;;11.60;8.70;;;1.10;99.90;;;;;;6153975;23;20434;-91
2021/01/07 07:36:12;;;;;;;12.30;9.10;;;1.20;99.90;;;;;;6179269;23;20439;-91
2021/01/07 07:38:40;;;;;;;12.07;8.07;;;1.30;99.90;;;;;;6177404;23;20514;-91
2021/01/07 07:41:10;;;;;;;11.87;8.80;;;1.30;99.90;;;;;;6178046;23;20400;-91
2021/01/07 07:43:37;;;;;;;12.30;8.60;;;1.30;99.90;;;;;;6172305;23;20478;-90
2021/01/07 07:46:09;;;;;;;11.30;8.07;;;1.40;99.90;;;;;;6177277;23;20400;-92
2021/01/07 07:48:35;;;;;;;10.83;8.20;;;1.40;99.90;;;;;;6152993;23;20392;-91
2021/01/07 07:51:11;;;;;;;10.43;8.30;;;1.40;99.90;;;;;;6152398;23;20475;-90
2021/01/07 07:53:40;;;;;;;11.33;8.67;;;1.40;99.90;;;;;;6176875;23;20406;-90
2021/01/07 07:56:22;;;;;;;15.90;9.70;;;1.40;99.90;;;;;;6176827;23;20400;-92
2021/01/07 07:58:48;;;;;;;13.90;10.87;;;1.40;99.90;;;;;;6176617;23;20497;-91
2021/01/07 08:01:15;;;;;;;17.67;12.97;;;1.40;99.90;;;;;;6176067;23;20395;-91
2021/01/07 08:04:13;;;;;;;14.00;10.00;;;1.40;99.90;;;;;;6176091;23;20482;-92
2021/01/07 08:06:42;;;;;;;10.33;7.80;;;1.40;99.90;;;;;;6179894;23;20399;-92
2021/01/07 08:09:12;;;;;;;12.70;9.20;;;1.40;99.90;;;;;;6178413;23;20395;-91
2021/01/07 08:11:50;;;;;;;22.77;16.37;;;1.40;99.90;;;;;;6178345;23;20376;-91
2021/01/07 08:14:19;;;;;;;14.30;10.80;;;1.40;99.90;;;;;;6176098;23;20404;-92
2021/01/07 08:16:45;;;;;;;12.07;8.77;;;1.50;99.90;;;;;;6177344;23;20384;-90
2021/01/07 08:19:18;;;;;;;12.00;9.47;;;1.50;99.90;;;;;;6175975;23;20450;-91
2021/01/07 08:21:49;;;;;;;12.30;8.90;;;1.40;99.90;;;;;;6176642;23;20878;-91
2021/01/07 08:24:16;;;;;;;12.97;9.47;;;1.40;99.90;;;;;;6175964;23;20458;-90
2021/01/07 08:26:49;;;;;;;12.50;9.40;;;1.50;99.90;;;;;;6176523;23;20388;-92
2021/01/07 08:29:15;;;;;;;11.67;9.60;;;1.50;99.90;;;;;;6175921;23;20765;-91
2021/01/07 08:31:49;;;;;;;15.17;10.10;;;1.40;99.90;;;;;;6177503;23;20471;-90
2021/01/07 08:34:18;;;;;;;14.10;10.40;;;1.40;99.90;;;;;;6176073;23;20535;-95
2021/01/07 08:36:44;;;;;;;13.63;9.87;;;1.30;99.90;;;;;;6176247;23;20402;-90
2021/01/07 08:39:14;;;;;;;16.27;9.60;;;1.40;99.90;;;;;;6176360;23;20451;-92
2021/01/07 08:41:43;;;;;;;13.97;10.13;;;1.50;99.90;;;;;;6175902;23;20392;-92
2021/01/07 08:44:08;;;;;;;13.60;9.63;;;1.50;99.90;;;;;;6176710;23;20431;-91
2021/01/07 08:46:42;;;;;;;12.10;9.90;;;1.60;99.90;;;;;;6176640;23;20388;-92
2021/01/07 08:49:10;;;;;;;13.10;9.30;;;1.50;99.90;;;;;;6176736;23;20577;-92
2021/01/07 08:51:41;;;;;;;13.20;9.80;;;1.70;99.90;;;;;;6175595;23;20388;-90
2021/01/07 08:54:18;;;;;;;12.83;9.00;;;1.80;99.90;;;;;;6175333;23;20445;-91
2021/01/07 08:56:47;;;;;;;14.20;9.93;;;1.80;99.90;;;;;;6177390;23;20392;-92
2021/01/07 08:59:32;;;;;;;14.53;10.20;;;1.80;99.90;;;;;;6177509;23;20443;-89
2021/01/07 09:02:07;;;;;;;11.80;9.80;;;2.00;99.90;;;;;;6175528;23;20399;-95
2021/01/07 09:04:37;;;;;;;12.67;8.90;;;2.00;99.90;;;;;;6180808;23;20395;-93
2021/01/07 09:07:17;;;;;;;12.10;8.50;;;2.10;99.90;;;;;;6180544;23;20388;-93
2021/01/07 09:09:53;;;;;;;11.73;9.57;;;2.10;99.90;;;;;;6177869;23;20405;-93
2021/01/07 09:12:37;;;;;;;14.33;10.27;;;2.20;99.90;;;;;;6175547;23;20499;-94
2021/01/07 09:15:10;;;;;;;12.10;9.47;;;2.30;99.90;;;;;;6170297;23;20392;-91
2021/01/07 09:17:56;;;;;;;15.17;11.67;;;2.50;99.90;;;;;;6176005;23;20405;-95
2021/01/07 09:20:30;;;;;;;12.77;10.00;;;2.60;99.90;;;;;;6178439;23;20442;-94
2021/01/07 09:23:16;;;;;;;12.97;9.50;;;2.80;99.90;;;;;;6176869;23;20455;-92
2021/01/07 09:25:43;;;;;;;12.90;10.23;;;3.00;99.90;;;;;;6178185;23;20404;-92
2021/01/07 09:28:18;;;;;;;12.33;8.60;;;3.00;99.90;;;;;;6173355;23;20401;-93
2021/01/07 09:30:46;;;;;;;10.63;8.60;;;3.00;99.90;;;;;;6175812;23;20397;-92
2021/01/07 09:33:12;;;;;;;14.80;9.93;;;2.80;99.90;;;;;;6178046;23;20591;-92
2021/01/07 09:35:38;;;;;;;16.37;11.27;;;2.60;99.90;;;;;;6150770;23;20453;-92
2021/01/07 09:38:04;;;;;;;16.00;11.70;;;2.40;99.90;;;;;;6151452;23;20833;-93
2021/01/07 09:40:30;;;;;;;13.60;10.43;;;2.40;99.90;;;;;;6151385;23;20198;-91
2021/01/07 09:42:55;;;;;;;13.90;10.10;;;2.40;99.90;;;;;;6151177;23;20172;-93
2021/01/07 09:45:21;;;;;;;16.63;10.90;;;2.50;99.90;;;;;;6154658;23;20867;-93
2021/01/07 09:47:47;;;;;;;10.47;9.33;;;2.60;99.90;;;;;;6150948;23;20160;-91
2021/01/07 09:50:13;;;;;;;14.53;9.60;;;2.60;99.90;;;;;;6153791;23;20198;-93
2021/01/07 09:52:40;;;;;;;13.20;9.30;;;2.60;99.90;;;;;;6167963;23;20231;-94
2021/01/07 09:55:07;;;;;;;14.67;10.13;;;2.60;99.90;;;;;;6164645;23;20401;-90
2021/01/07 09:57:34;;;;;;;14.37;10.00;;;2.60;99.90;;;;;;6130398;23;20415;-91
2021/01/07 10:00:00;;;;;;;13.57;10.00;;;2.70;99.90;;;;;;6150904;23;20959;-89
2021/01/07 10:02:30;;;;;;;15.57;12.10;;;2.70;99.90;;;;;;6150263;23;20397;-89
2021/01/07 10:04:56;;;;;;;14.50;10.27;;;2.80;99.90;;;;;;6126780;23;20187;-89
2021/01/07 10:07:21;;;;;;;14.07;10.47;;;2.80;99.90;;;;;;6152241;23;20383;-88
2021/01/07 10:09:47;;;;;;;14.23;10.00;;;2.90;99.90;;;;;;6152994;23;20173;-90
2021/01/07 10:12:13;;;;;;;14.50;12.00;;;2.80;99.90;;;;;;6152398;23;20808;-91
2021/01/07 10:14:38;;;;;;;15.90;10.70;;;2.90;99.90;;;;;;6152467;23;20240;-89
2021/01/07 10:17:06;;;;;;;13.20;8.97;;;3.00;99.90;;;;;;6152701;23;20606;-90
2021/01/07 10:19:43;;;;;;;13.40;10.20;;;3.00;99.90;;;;;;6152119;23;20196;-88
2021/01/07 10:22:14;;;;;;;13.27;9.67;;;2.90;99.90;;;;;;6153556;23;20400;-91
2021/01/07 10:24:48;;;;;;;13.27;9.50;;;3.10;99.90;;;;;;6178100;23;20763;-91
2021/01/07 10:27:18;;;;;;;11.73;9.20;;;3.10;99.90;;;;;;6176354;23;20775;-91
2021/01/07 10:29:45;;;;;;;12.70;9.33;;;3.20;99.90;;;;;;6152229;23;20397;-95
2021/01/07 10:32:16;;;;;;;12.80;9.10;;;3.10;99.90;;;;;;6155945;23;20385;-95
2021/01/07 10:34:46;;;;;;;15.53;10.97;;;3.10;99.90;;;;;;6153628;23;20408;-93
2021/01/07 10:37:13;;;;;;;12.33;9.50;;;3.30;99.90;;;;;;6151866;23;20906;-93
2021/01/07 10:39:41;;;;;;;13.60;10.77;;;3.30;99.90;;;;;;6153080;23;20446;-92
2021/01/07 10:42:10;;;;;;;12.63;9.73;;;3.20;99.90;;;;;;6152489;23;20867;-91
2021/01/07 10:44:37;;;;;;;13.20;9.60;;;3.30;99.90;;;;;;6151378;23;20383;-93
2021/01/07 10:47:05;;;;;;;13.63;9.70;;;3.40;99.90;;;;;;6151292;23;20392;-93
2021/01/07 10:49:32;;;;;;;14.77;10.80;;;3.40;99.90;;;;;;6152497;23;20704;-93
2021/01/07 10:52:07;;;;;;;13.70;10.57;;;3.30;99.90;;;;;;6152642;23;20477;-94
2021/01/07 10:55:03;;;;;;;11.90;9.77;;;3.40;99.90;;;;;;6153045;23;20426;-93
2021/01/07 10:58:07;;;;;;;16.10;10.40;;;3.40;99.90;;;;;;6155963;23;20391;-94
2021/01/07 11:00:52;;;;;;;13.40;10.93;;;3.40;99.90;;;;;;6198926;22;20463;-93
2021/01/07 11:04:02;;;;;;;12.33;9.67;;;3.40;99.90;;;;;;6231966;23;20402;-92
2021/01/07 11:06:34;;;;;;;13.53;10.90;;;3.30;99.90;;;;;;6230128;23;20403;-93
2021/01/07 11:09:09;;;;;;;13.50;10.00;;;3.40;99.90;;;;;;6231124;23;20664;-91
2021/01/07 11:11:49;;;;;;;14.70;10.90;;;3.60;99.90;;;;;;6230621;23;20408;-89
2021/01/07 11:14:32;;;;;;;13.33;10.20;;;3.50;99.90;;;;;;6231208;23;20848;-95
2021/01/07 11:17:04;;;;;;;12.67;10.40;;;3.50;99.90;;;;;;6229916;23;20497;-92
2021/01/07 11:19:32;;;;;;;12.30;9.90;;;3.60;99.90;;;;;;6231293;23;20476;-91
2021/01/07 11:22:04;;;;;;;12.67;9.70;;;3.50;99.90;;;;;;6231195;23;20401;-90
2021/01/07 11:24:30;;;;;;;12.67;9.90;;;3.70;99.90;;;;;;6230770;23;20397;-89
2021/01/07 11:26:58;;;;;;;14.13;9.53;;;4.20;99.90;;;;;;6229804;23;20418;-87
2021/01/07 11:29:25;;;;;;;13.37;10.20;;;4.60;99.90;;;;;;6231077;23;20398;-93
2021/01/07 11:31:57;;;;;;;13.50;9.83;;;4.50;99.90;;;;;;6230124;23;20402;-93
2021/01/07 11:34:25;;;;;;;15.47;10.80;;;4.10;99.90;;;;;;6231876;23;20398;-93
2021/01/07 11:37:22;;;;;;;13.07;10.87;;;4.00;99.90;;;;;;6230308;23;20535;-92
2021/01/07 11:39:57;;;;;;;12.77;9.60;;;4.00;99.90;;;;;;6231372;23;20843;-93
2021/01/07 11:42:35;;;;;;;14.60;10.30;;;4.00;99.90;;;;;;6229798;23;20429;-93
2021/01/07 11:45:12;;;;;;;12.93;10.73;;;4.10;99.90;;;;;;6235653;23;20406;-96
2021/01/07 11:48:02;;;;;;;12.67;10.20;;;4.00;99.90;;;;;;6253183;22;20464;-94
2021/01/07 11:50:36;;;;;;;14.60;10.93;;;4.10;99.90;;;;;;6253182;22;20436;-95
2021/01/07 11:53:32;;;;;;;12.93;9.57;;;4.20;99.90;;;;;;6240385;22;20440;-96
2021/01/07 12:01:22;;;;;;;14.40;10.30;;;3.80;99.90;;;;;;6297074;22;20405;-95
2021/01/07 12:11:48;;;;;;;13.13;9.20;;;3.90;99.90;;;;;;6191587;22;21091;-90
2021/01/07 12:14:16;;;;;;;12.90;9.87;;;3.80;99.90;;;;;;6170459;23;21111;-91
2021/01/07 12:16:55;;;;;;;13.63;10.07;;;3.70;99.90;;;;;;6174146;23;20437;-90
2021/01/07 12:19:32;;;;;;;10.63;9.27;;;3.90;99.90;;;;;;6182328;23;20442;-96
2021/01/07 12:22:15;;;;;;;13.57;9.83;;;3.80;99.90;;;;;;6209208;22;20487;-96
2021/01/07 12:24:43;;;;;;;11.90;9.63;;;3.70;99.90;;;;;;6176440;23;20403;-93
2021/01/07 12:27:09;;;;;;;15.10;10.37;;;3.70;99.90;;;;;;6177144;23;20407;-92
2021/01/07 12:29:47;;;;;;;13.77;10.40;;;3.70;99.90;;;;;;6174639;23;20398;-94
2021/01/07 12:32:28;;;;;;;13.10;10.40;;;3.60;99.90;;;;;;6176469;23;20497;-93
2021/01/07 12:35:05;;;;;;;13.87;10.43;;;3.60;99.90;;;;;;6175036;23;20755;-95
2021/01/07 12:37:41;;;;;;;13.20;10.50;;;3.70;99.90;;;;;;6177510;23;21000;-96
2021/01/07 12:40:15;;;;;;;12.57;10.60;;;3.70;99.90;;;;;;6176803;23;20442;-93
2021/01/07 12:42:54;;;;;;;16.07;11.30;;;3.60;99.90;;;;;;6174857;23;20399;-93
2021/01/07 12:45:28;;;;;;;13.80;10.30;;;3.60;99.90;;;;;;6176441;23;20395;-95
2021/01/07 12:47:58;;;;;;;15.00;11.20;;;3.60;99.90;;;;;;6175502;23;20956;-95
2021/01/07 12:50:24;;;;;;;15.33;10.90;;;3.60;99.90;;;;;;6171876;23;20423;-90
2021/01/07 12:52:50;;;;;;;18.17;12.00;;;3.40;99.90;;;;;;6198451;23;20443;-89
2021/01/07 12:55:16;;;;;;;15.23;10.60;;;3.60;99.90;;;;;;6172184;23;20763;-91
2021/01/07 12:58:17;;;;;;;13.03;10.83;;;3.50;99.90;;;;;;6172151;23;20167;-93
2021/01/07 13:01:01;;;;;;;15.00;10.70;;;3.40;99.90;;;;;;6173274;23;20600;-91
2021/01/07 13:03:36;;;;;;;15.80;11.00;;;3.40;99.90;;;;;;6173498;23;20440;-93
2021/01/07 13:06:02;;;;;;;15.63;10.63;;;3.20;99.90;;;;;;6171351;23;20947;-92
2021/01/07 13:08:30;;;;;;;13.13;10.90;;;3.20;99.90;;;;;;6175112;23;20397;-96
2021/01/07 13:10:59;;;;;;;14.87;11.20;;;3.20;99.90;;;;;;6176501;23;20399;-94
2021/01/07 13:13:30;;;;;;;14.97;11.10;;;3.10;99.90;;;;;;6174855;23;20393;-94
2021/01/07 13:15:58;;;;;;;17.50;11.70;;;3.10;99.90;;;;;;6177720;23;20401;-94
2021/01/07 13:18:25;;;;;;;15.10;12.30;;;3.10;99.90;;;;;;6179311;23;20436;-94
2021/01/07 13:20:50;;;;;;;18.57;12.97;;;3.00;99.90;;;;;;6196551;23;20447;-92
2021/01/07 13:23:16;;;;;;;16.83;12.17;;;3.10;99.90;;;;;;6228805;23;20540;-91